CNZ4 weather

Barry's Bay / Madawaska Valley Airpark
Barry's Bay, Ontario, Canada

Public forecast

Using degrees Celsius for public forecast. Weather courtesy of forecast.io.

METAR (pilot weather report)

Closest report is Petawawa Airport, 30.1 nm (55.8 km) NNE. Retrieved 2019/05/21 07:08 UTC (50 minutes ago):

CYWA 210708Z AUTO 31009KT 9SM OVC023 08/04 A2987

TAF (pilot weather forecast)

Closest forecast is Petawawa Airport, 30.1 nm (55.8 km) NNE. Retrieved 2019/05/21 06:33 UTC (1 hour ago):

TAF CYWA 210530Z 2106/2118 30008KT P6SM SCT020 BKN030 TEMPO 2106/2112 6SM -SHRA BR OVC020 BECMG 2113/2115 31010G20KT SCT030 RMK FCST BASED ON AUTO OBS. NXT FCST BY 211200Z